createdAt,value
2017-12-23T00:00:06.929Z,92.70
2017-12-23T00:02:35.168Z,92.40
2017-12-23T00:05:02.667Z,92.40
2017-12-23T00:07:30.129Z,92.20
2017-12-23T00:09:57.623Z,92.20
2017-12-23T00:12:25.899Z,92.20
2017-12-23T00:14:54.168Z,92.10
2017-12-23T00:17:22.364Z,92.40
2017-12-23T00:19:49.871Z,92.10
2017-12-23T00:22:17.332Z,92.10
2017-12-23T00:24:44.796Z,92.00
2017-12-23T00:27:12.271Z,92.10
2017-12-23T00:29:40.517Z,92.20
2017-12-23T00:32:07.994Z,92.10
2017-12-23T00:34:35.454Z,92.10
2017-12-23T00:37:02.934Z,92.00
2017-12-23T00:39:30.392Z,92.10
2017-12-23T00:41:57.865Z,92.00
2017-12-23T00:44:25.333Z,92.00
2017-12-23T00:46:53.573Z,92.00
2017-12-23T00:49:21.056Z,92.00
2017-12-23T00:51:48.518Z,92.10
2017-12-23T00:54:15.980Z,92.00
2017-12-23T00:56:43.442Z,92.00
2017-12-23T00:59:10.905Z,92.00
2017-12-23T01:01:38.373Z,92.00
2017-12-23T01:04:05.833Z,92.10
2017-12-23T01:06:33.304Z,92.10
2017-12-23T01:09:00.769Z,92.10
2017-12-23T01:11:28.240Z,92.00
2017-12-23T01:13:55.716Z,92.00
2017-12-23T01:16:23.181Z,92.00
2017-12-23T01:18:51.414Z,92.00
2017-12-23T01:21:18.883Z,92.00
2017-12-23T01:23:46.344Z,92.00
2017-12-23T01:26:13.798Z,91.90
2017-12-23T01:28:41.263Z,91.90
2017-12-23T01:31:08.753Z,92.20
2017-12-23T01:33:36.223Z,91.90
2017-12-23T01:36:03.698Z,92.00
2017-12-23T01:38:31.164Z,91.90
2017-12-23T01:40:58.636Z,92.00
2017-12-23T01:43:26.877Z,92.00
2017-12-23T01:45:54.345Z,92.00
2017-12-23T01:48:33.613Z,91.90
2017-12-23T01:51:01.100Z,91.90
2017-12-23T01:53:28.572Z,91.90
2017-12-23T01:55:56.037Z,92.00
2017-12-23T01:58:23.505Z,91.90
2017-12-23T02:00:50.966Z,91.90
2017-12-23T02:03:18.440Z,91.90
2017-12-23T02:05:45.907Z,91.90
2017-12-23T02:08:13.369Z,91.90
2017-12-23T02:10:40.827Z,91.90
2017-12-23T02:13:08.299Z,91.90
2017-12-23T02:15:35.748Z,91.90
2017-12-23T02:18:03.229Z,91.90
2017-12-23T02:20:30.686Z,91.80
2017-12-23T02:22:58.156Z,91.90
2017-12-23T02:25:27.144Z,92.10
2017-12-23T02:27:54.635Z,91.80
2017-12-23T02:30:22.109Z,91.70
2017-12-23T02:32:49.574Z,91.70
2017-12-23T02:35:17.812Z,91.80
2017-12-23T02:37:45.269Z,91.80
2017-12-23T02:40:12.749Z,91.80
2017-12-23T02:42:40.208Z,91.70
2017-12-23T02:45:07.677Z,91.70
2017-12-23T02:47:35.141Z,91.60
2017-12-23T02:50:02.594Z,91.70
2017-12-23T02:52:30.071Z,92.00
2017-12-23T02:54:57.526Z,91.70
2017-12-23T02:57:24.992Z,91.60
2017-12-23T02:59:52.449Z,91.70
2017-12-23T03:02:19.910Z,91.70
2017-12-23T03:04:48.167Z,91.50
2017-12-23T03:07:15.628Z,91.50
2017-12-23T03:09:43.096Z,91.60
2017-12-23T03:12:10.565Z,91.70
2017-12-23T03:14:38.042Z,91.80
2017-12-23T03:17:05.508Z,91.70
2017-12-23T03:19:32.976Z,91.70
2017-12-23T03:22:01.212Z,91.70
2017-12-23T03:24:28.688Z,91.70
2017-12-23T03:26:56.133Z,91.80
2017-12-23T03:29:23.619Z,91.70
2017-12-23T03:31:51.072Z,91.70
2017-12-23T03:34:18.539Z,91.70
2017-12-23T03:36:46.010Z,91.60
2017-12-23T03:39:14.030Z,91.60
2017-12-23T03:41:41.498Z,91.60
2017-12-23T03:44:08.953Z,91.70
2017-12-23T03:46:36.429Z,91.60
2017-12-23T03:49:03.904Z,91.70
2017-12-23T03:51:31.373Z,91.60
2017-12-23T03:53:58.833Z,91.50
2017-12-23T03:56:26.296Z,91.90
2017-12-23T03:58:53.762Z,91.60
2017-12-23T04:01:21.241Z,91.50
2017-12-23T04:03:48.714Z,91.50
2017-12-23T04:06:16.169Z,91.80
2017-12-23T04:08:43.629Z,91.60
2017-12-23T04:11:11.088Z,91.60
2017-12-23T04:13:38.555Z,91.50
2017-12-23T04:16:06.051Z,91.50
2017-12-23T04:18:33.523Z,91.40
2017-12-23T04:21:00.985Z,91.50
2017-12-23T04:23:28.463Z,91.40
2017-12-23T04:25:55.947Z,91.40
2017-12-23T04:28:23.412Z,91.50
2017-12-23T04:30:50.888Z,91.50
2017-12-23T04:33:18.349Z,91.50
2017-12-23T04:35:45.835Z,91.50
2017-12-23T04:38:14.072Z,91.50
2017-12-23T04:40:41.561Z,91.50
2017-12-23T04:43:09.021Z,91.50
2017-12-23T04:45:37.114Z,91.50
2017-12-23T04:50:55.742Z,91.40
2017-12-23T04:53:23.222Z,91.50
2017-12-23T04:55:50.705Z,91.50
2017-12-23T04:58:18.953Z,91.50
2017-12-23T05:00:46.428Z,91.50
2017-12-23T05:03:14.679Z,91.20
2017-12-23T05:05:42.159Z,91.50
2017-12-23T05:08:09.621Z,91.50
2017-12-23T05:10:37.180Z,91.50
2017-12-23T05:13:04.613Z,91.50
2017-12-23T05:15:32.091Z,91.50
2017-12-23T05:17:59.561Z,91.50
2017-12-23T05:20:27.034Z,91.40
2017-12-23T05:22:54.508Z,91.40
2017-12-23T05:25:21.966Z,91.40
2017-12-23T05:27:49.454Z,91.50
2017-12-23T05:30:17.691Z,91.30
2017-12-23T05:32:45.165Z,91.30
2017-12-23T05:35:12.629Z,91.30
2017-12-23T05:37:40.100Z,91.40
2017-12-23T05:40:07.575Z,91.30
2017-12-23T05:42:35.832Z,91.30
2017-12-23T05:45:03.309Z,91.30
2017-12-23T05:47:31.563Z,91.30
2017-12-23T05:49:59.092Z,91.30
2017-12-23T05:52:26.495Z,91.30
2017-12-23T05:54:53.964Z,91.30
2017-12-23T05:57:21.446Z,91.30
2017-12-23T05:59:49.695Z,91.20
2017-12-23T06:02:17.167Z,91.20
2017-12-23T06:04:44.638Z,91.20
2017-12-23T06:07:12.170Z,91.20
2017-12-23T06:09:39.648Z,91.60
2017-12-23T06:12:07.117Z,91.20
2017-12-23T06:14:34.634Z,91.30
2017-12-23T06:17:02.115Z,91.30
2017-12-23T06:19:29.612Z,91.30
2017-12-23T06:21:57.073Z,91.30
2017-12-23T06:24:24.553Z,91.20
2017-12-23T06:26:52.795Z,91.20
2017-12-23T06:29:20.262Z,91.20
2017-12-23T06:31:47.734Z,91.30
2017-12-23T06:34:15.234Z,91.20
2017-12-23T06:36:42.714Z,91.30
2017-12-23T06:39:10.184Z,91.30
2017-12-23T06:41:37.655Z,91.30
2017-12-23T06:44:05.131Z,91.30
2017-12-23T06:46:32.617Z,91.30
2017-12-23T06:49:00.090Z,91.30
2017-12-23T06:51:28.320Z,91.50
2017-12-23T06:53:55.818Z,91.40
2017-12-23T06:56:23.303Z,91.40
2017-12-23T06:58:51.565Z,91.50
2017-12-23T07:01:19.032Z,91.50
2017-12-23T07:03:46.511Z,91.40
2017-12-23T07:06:14.749Z,91.40
2017-12-23T07:08:42.222Z,91.40
2017-12-23T07:11:09.680Z,91.30
2017-12-23T07:13:37.161Z,91.30
2017-12-23T07:16:04.647Z,91.30
2017-12-23T07:18:32.886Z,91.40
2017-12-23T07:21:00.354Z,91.30
2017-12-23T07:23:27.819Z,91.30
2017-12-23T07:25:55.290Z,91.20
2017-12-23T07:28:22.759Z,91.30
2017-12-23T07:30:50.238Z,91.30
2017-12-23T07:33:18.495Z,91.30
2017-12-23T07:35:45.964Z,91.30
2017-12-23T07:38:13.433Z,91.30
2017-12-23T07:40:41.674Z,91.30
2017-12-23T07:43:09.902Z,91.30
2017-12-23T07:45:38.134Z,91.20
2017-12-23T07:48:05.623Z,91.20
2017-12-23T07:50:33.874Z,91.20
2017-12-23T07:53:01.344Z,91.20
2017-12-23T07:55:29.615Z,91.30
2017-12-23T07:57:57.137Z,91.30
2017-12-23T08:00:24.551Z,91.20
2017-12-23T08:02:52.017Z,91.20
2017-12-23T08:05:19.512Z,91.30
2017-12-23T08:07:47.750Z,91.50
2017-12-23T08:10:15.240Z,91.30
2017-12-23T08:12:42.711Z,91.30
2017-12-23T08:15:10.181Z,91.30
2017-12-23T08:17:38.428Z,91.60
2017-12-23T08:20:05.913Z,91.20
2017-12-23T08:22:33.394Z,91.30
2017-12-23T08:25:01.635Z,91.30
2017-12-23T08:27:29.105Z,91.30
2017-12-23T08:29:56.608Z,91.30
2017-12-23T08:32:24.840Z,91.20
2017-12-23T08:34:52.316Z,91.20
2017-12-23T08:37:19.793Z,91.20
2017-12-23T08:39:47.258Z,91.20
2017-12-23T08:42:14.761Z,91.10
2017-12-23T08:44:42.249Z,91.10
2017-12-23T08:47:09.728Z,91.10
2017-12-23T08:49:37.214Z,91.10
2017-12-23T08:52:04.703Z,91.00
2017-12-23T08:54:32.184Z,91.30
2017-12-23T08:56:59.653Z,91.00
2017-12-23T08:59:27.125Z,90.90
2017-12-23T09:01:54.586Z,91.00
2017-12-23T09:04:22.068Z,91.00
2017-12-23T09:06:49.533Z,91.10
2017-12-23T09:09:16.998Z,91.00
2017-12-23T09:11:44.484Z,91.00
2017-12-23T09:14:12.718Z,91.00
2017-12-23T09:16:40.188Z,91.00
2017-12-23T09:19:07.653Z,91.00
2017-12-23T09:21:35.133Z,91.00
2017-12-23T09:24:02.610Z,91.10
2017-12-23T09:26:30.079Z,91.10
2017-12-23T09:28:58.313Z,91.10
2017-12-23T09:31:26.597Z,91.20
2017-12-23T09:33:54.126Z,91.10
2017-12-23T09:36:21.555Z,91.00
2017-12-23T09:38:49.034Z,91.00
2017-12-23T09:41:17.266Z,91.10
2017-12-23T09:43:44.727Z,91.10
2017-12-23T09:46:12.210Z,91.10
2017-12-23T09:48:39.706Z,91.10
2017-12-23T09:51:07.929Z,91.20
2017-12-23T09:53:35.450Z,91.10
2017-12-23T09:56:03.673Z,91.10
2017-12-23T09:58:31.147Z,91.10
2017-12-23T10:00:58.622Z,91.10
2017-12-23T10:03:27.071Z,91.10
2017-12-23T10:05:54.554Z,91.10
2017-12-23T10:08:22.006Z,91.10
2017-12-23T10:10:49.483Z,91.10
2017-12-23T10:13:16.949Z,91.00
2017-12-23T10:15:44.438Z,90.90
2017-12-23T10:18:12.668Z,91.00
2017-12-23T10:20:40.177Z,90.90
2017-12-23T10:23:07.647Z,91.00
2017-12-23T10:25:35.890Z,91.00
2017-12-23T10:28:03.357Z,90.90
2017-12-23T10:30:30.830Z,91.00
2017-12-23T10:32:58.309Z,91.00
2017-12-23T10:35:25.788Z,91.00
2017-12-23T10:37:54.027Z,91.00
2017-12-23T10:40:21.505Z,91.00
2017-12-23T10:42:48.993Z,90.90
2017-12-23T10:45:17.302Z,90.90
2017-12-23T10:47:44.791Z,90.90
2017-12-23T10:50:12.272Z,91.00
2017-12-23T10:52:39.812Z,90.80
2017-12-23T10:55:07.282Z,90.90
2017-12-23T10:57:34.771Z,90.80
2017-12-23T11:00:02.262Z,90.80
2017-12-23T11:02:29.732Z,90.80
2017-12-23T11:04:57.239Z,90.90
2017-12-23T11:07:24.710Z,90.90
2017-12-23T11:09:52.186Z,90.90
2017-12-23T11:12:19.649Z,90.80
2017-12-23T11:14:47.150Z,90.80
2017-12-23T11:17:14.617Z,90.90
2017-12-23T11:19:42.092Z,90.80
2017-12-23T11:22:09.567Z,90.90
2017-12-23T11:24:37.817Z,90.80
2017-12-23T11:27:05.313Z,90.80
2017-12-23T11:29:32.781Z,90.80
2017-12-23T11:32:00.305Z,90.70
2017-12-23T11:34:27.776Z,90.60
2017-12-23T11:36:55.245Z,90.70
2017-12-23T11:39:22.729Z,90.70
2017-12-23T11:41:50.258Z,90.80
2017-12-23T11:44:17.734Z,90.80
2017-12-23T11:46:45.227Z,90.80
2017-12-23T11:49:12.701Z,90.70
2017-12-23T11:51:40.166Z,90.60
2017-12-23T11:54:07.635Z,90.50
2017-12-23T11:56:35.883Z,90.50
2017-12-23T11:59:03.380Z,90.80
2017-12-23T12:01:30.850Z,90.40
2017-12-23T12:03:59.091Z,90.30
2017-12-23T12:06:26.557Z,90.30
2017-12-23T12:08:54.093Z,90.30
2017-12-23T12:11:21.561Z,90.30
2017-12-23T12:13:49.013Z,90.20
2017-12-23T12:16:16.541Z,90.30
2017-12-23T12:18:44.013Z,90.20
2017-12-23T12:21:12.250Z,90.20
2017-12-23T12:23:39.734Z,90.20
2017-12-23T12:26:07.197Z,90.10
2017-12-23T12:28:34.681Z,90.10
2017-12-23T12:31:02.926Z,90.00
2017-12-23T12:33:30.404Z,90.00
2017-12-23T12:35:57.884Z,90.20
2017-12-23T12:38:26.125Z,90.10
2017-12-23T12:40:53.609Z,90.10
2017-12-23T12:43:21.093Z,90.00
2017-12-23T12:45:49.322Z,90.10
2017-12-23T12:48:16.790Z,90.10
2017-12-23T12:50:45.036Z,90.00
2017-12-23T12:53:12.492Z,90.00
2017-12-23T12:55:39.970Z,90.00
2017-12-23T12:58:07.435Z,90.10
2017-12-23T13:00:34.922Z,89.70
2017-12-23T13:03:02.383Z,90.00
2017-12-23T13:05:29.881Z,90.00
2017-12-23T13:07:57.358Z,89.90
2017-12-23T13:10:25.602Z,90.00
2017-12-23T13:12:53.063Z,90.00
2017-12-23T13:15:20.548Z,90.30
2017-12-23T13:17:48.787Z,90.00
2017-12-23T13:20:16.309Z,90.00
2017-12-23T13:22:44.556Z,90.00
2017-12-23T13:25:12.032Z,90.00
2017-12-23T13:27:39.527Z,89.90
2017-12-23T13:30:06.998Z,89.80
2017-12-23T13:32:34.501Z,89.80
2017-12-23T13:35:01.978Z,89.80
2017-12-23T13:37:29.450Z,90.00
2017-12-23T13:39:56.922Z,89.70
2017-12-23T13:42:25.209Z,89.50
2017-12-23T13:44:53.439Z,89.50
2017-12-23T13:47:20.916Z,89.50
2017-12-23T13:49:49.160Z,89.70
2017-12-23T13:52:16.622Z,89.70
2017-12-23T13:54:44.101Z,89.70
2017-12-23T13:57:11.573Z,89.60
2017-12-23T13:59:39.045Z,89.50
2017-12-23T14:02:06.518Z,89.60
2017-12-23T14:04:33.987Z,89.70
2017-12-23T14:07:02.264Z,89.70
2017-12-23T14:09:29.789Z,89.50
2017-12-23T14:11:57.265Z,89.30
2017-12-23T14:14:24.739Z,89.40
2017-12-23T14:16:52.216Z,89.40
2017-12-23T14:19:19.676Z,89.50
2017-12-23T14:21:47.230Z,89.50
2017-12-23T14:24:14.698Z,89.40
2017-12-23T14:26:42.171Z,89.50
2017-12-23T14:29:09.632Z,89.70
2017-12-23T14:31:37.155Z,89.50
2017-12-23T14:34:04.640Z,89.50
2017-12-23T14:36:32.115Z,88.90
2017-12-23T14:38:59.603Z,88.90
2017-12-23T14:41:28.455Z,89.10
2017-12-23T14:43:55.926Z,89.10
2017-12-23T14:46:23.396Z,89.10
2017-12-23T14:48:50.932Z,89.40
2017-12-23T14:51:18.392Z,89.50
2017-12-23T14:53:45.879Z,89.70
2017-12-23T14:56:13.347Z,89.70
2017-12-23T14:58:40.844Z,89.90
2017-12-23T15:01:09.070Z,89.90
2017-12-23T15:03:36.544Z,89.80
2017-12-23T15:06:04.010Z,89.80
2017-12-23T15:08:31.462Z,89.80
2017-12-23T15:10:58.971Z,89.70
2017-12-23T15:16:17.793Z,89.60
2017-12-23T15:18:45.269Z,89.80
2017-12-23T15:21:12.721Z,89.90
2017-12-23T15:23:40.185Z,89.70
2017-12-23T15:26:07.692Z,89.80
2017-12-23T15:28:35.923Z,89.70
2017-12-23T15:31:03.391Z,89.70
2017-12-23T15:33:30.858Z,89.70
2017-12-23T15:35:58.325Z,89.80
2017-12-23T15:38:25.838Z,89.70
2017-12-23T15:40:53.305Z,89.70
2017-12-23T15:43:20.776Z,90.10
2017-12-23T15:45:48.249Z,89.70
2017-12-23T15:48:15.728Z,89.50
2017-12-23T15:50:43.193Z,89.50
2017-12-23T15:53:10.670Z,89.50
2017-12-23T15:55:38.128Z,89.60
2017-12-23T15:58:05.646Z,89.40
2017-12-23T16:00:33.112Z,89.40
2017-12-23T16:03:00.605Z,89.50
2017-12-23T16:05:28.070Z,89.30
2017-12-23T16:07:55.543Z,89.40
2017-12-23T16:10:23.099Z,89.40
2017-12-23T16:12:50.553Z,89.20
2017-12-23T16:15:18.029Z,89.10
2017-12-23T16:17:45.529Z,88.90
2017-12-23T16:20:13.765Z,88.40
2017-12-23T16:22:41.272Z,88.40
2017-12-23T16:25:09.517Z,88.80
2017-12-23T16:27:36.985Z,88.00
2017-12-23T16:30:04.452Z,88.00
2017-12-23T16:32:32.697Z,88.00
2017-12-23T16:35:00.187Z,87.90
2017-12-23T16:37:27.684Z,87.30
2017-12-23T16:39:55.160Z,87.50
2017-12-23T16:42:22.667Z,87.30
2017-12-23T16:44:50.135Z,87.20
2017-12-23T16:47:17.589Z,87.60
2017-12-23T16:49:45.827Z,87.80
2017-12-23T16:52:13.340Z,87.90
2017-12-23T16:54:40.857Z,88.10
2017-12-23T16:57:08.314Z,88.00
2017-12-23T16:59:35.774Z,87.80
2017-12-23T17:02:03.248Z,87.90
2017-12-23T17:04:30.751Z,88.00
2017-12-23T17:06:58.222Z,88.30
2017-12-23T17:09:25.686Z,88.20
2017-12-23T17:11:53.146Z,88.30
2017-12-23T17:14:21.386Z,88.30
2017-12-23T17:16:48.893Z,88.60
2017-12-23T17:19:16.356Z,88.40
2017-12-23T17:21:43.824Z,88.20
2017-12-23T17:24:12.067Z,87.20
2017-12-23T17:26:39.578Z,87.90
2017-12-23T17:29:18.944Z,87.90
2017-12-23T17:31:46.476Z,87.90
2017-12-23T17:34:14.759Z,87.90
2017-12-23T17:36:42.984Z,88.10
2017-12-23T17:39:10.502Z,88.00
2017-12-23T17:41:38.779Z,87.70
2017-12-23T17:44:07.049Z,87.60
2017-12-23T17:46:34.570Z,87.60
2017-12-23T17:49:02.071Z,88.00
2017-12-23T17:51:29.532Z,87.30
2017-12-23T17:53:57.037Z,87.10
2017-12-23T17:56:24.488Z,87.20
2017-12-23T17:58:52.042Z,86.90
2017-12-23T18:01:19.501Z,86.80
2017-12-23T18:03:47.741Z,87.00
2017-12-23T18:06:15.259Z,86.90
2017-12-23T18:08:43.525Z,86.70
2017-12-23T18:11:11.797Z,86.90
2017-12-23T18:13:39.296Z,86.90
2017-12-23T18:16:06.816Z,86.90
2017-12-23T18:18:34.321Z,86.70
2017-12-23T18:21:01.777Z,86.90
2017-12-23T18:23:29.236Z,86.80
2017-12-23T18:25:57.470Z,86.70
2017-12-23T18:28:25.752Z,86.70
2017-12-23T18:30:53.227Z,86.70
2017-12-23T18:33:20.713Z,86.60
2017-12-23T18:35:48.987Z,86.70
2017-12-23T18:38:16.501Z,86.60
2017-12-23T18:40:44.004Z,86.70
2017-12-23T18:43:11.540Z,86.80
2017-12-23T18:45:39.003Z,86.70
2017-12-23T18:48:06.490Z,86.70
2017-12-23T18:50:34.003Z,86.50
2017-12-23T18:53:01.473Z,86.00
2017-12-23T18:55:28.987Z,86.10
2017-12-23T18:57:56.509Z,86.10
2017-12-23T19:00:23.967Z,86.30
2017-12-23T19:02:51.451Z,86.10
2017-12-23T19:05:18.955Z,86.00
2017-12-23T19:07:47.168Z,86.00
2017-12-23T19:10:14.621Z,86.00
2017-12-23T19:12:42.144Z,86.00
2017-12-23T19:15:09.664Z,85.80
2017-12-23T19:17:37.184Z,86.00
2017-12-23T19:20:05.462Z,86.10
2017-12-23T19:22:33.738Z,86.00
2017-12-23T19:25:02.005Z,86.00
2017-12-23T19:27:29.525Z,86.00
2017-12-23T19:29:57.046Z,86.00
2017-12-23T19:32:24.562Z,86.00
2017-12-23T19:34:52.057Z,85.90
2017-12-23T19:37:19.572Z,86.10
2017-12-23T19:39:47.077Z,86.20
2017-12-23T19:42:14.582Z,86.30
2017-12-23T19:44:42.807Z,86.30
2017-12-23T19:47:10.314Z,86.30
2017-12-23T19:49:38.574Z,86.20
2017-12-23T19:52:06.098Z,86.20
2017-12-23T19:54:33.598Z,86.20
2017-12-23T19:57:01.115Z,86.00
2017-12-23T19:59:28.624Z,86.10
2017-12-23T20:01:56.125Z,85.80
2017-12-23T20:04:23.630Z,85.80
2017-12-23T20:06:51.157Z,85.90
2017-12-23T20:09:18.676Z,85.90
2017-12-23T20:11:46.146Z,85.80
2017-12-23T20:14:13.685Z,85.60
2017-12-23T20:16:41.201Z,85.70
2017-12-23T20:19:09.479Z,85.80
2017-12-23T20:21:37.009Z,85.70
2017-12-23T20:26:55.035Z,85.70
2017-12-23T20:29:22.555Z,86.60
2017-12-23T20:31:50.831Z,85.90
2017-12-23T20:34:18.353Z,85.90
2017-12-23T20:36:45.858Z,86.00
2017-12-23T20:39:14.139Z,86.20
2017-12-23T20:41:41.654Z,86.20
2017-12-23T20:44:09.167Z,86.30
2017-12-23T20:46:37.437Z,86.50
2017-12-23T20:49:04.957Z,86.40
2017-12-23T20:51:32.476Z,86.50
2017-12-23T20:54:00.017Z,86.60
2017-12-23T20:56:27.532Z,86.70
2017-12-23T20:58:55.040Z,86.70
2017-12-23T21:01:22.561Z,86.70
2017-12-23T21:03:50.131Z,86.90
2017-12-23T21:06:17.662Z,86.80
2017-12-23T21:08:45.964Z,86.90
2017-12-23T21:11:13.416Z,86.90
2017-12-23T21:13:40.976Z,86.90
2017-12-23T21:19:00.664Z,87.00
2017-12-23T21:21:28.954Z,87.00
2017-12-23T21:23:56.430Z,87.00
2017-12-23T21:26:23.946Z,86.90
2017-12-23T21:28:51.484Z,87.10
2017-12-23T21:31:18.997Z,86.90
2017-12-23T21:33:47.286Z,86.80
2017-12-23T21:36:14.815Z,86.80
2017-12-23T21:38:42.337Z,86.80
2017-12-23T21:41:09.837Z,87.00
2017-12-23T21:43:37.378Z,86.90
2017-12-23T21:46:04.837Z,87.00
2017-12-23T21:48:32.395Z,87.10
2017-12-23T21:50:59.892Z,87.10
2017-12-23T21:53:27.402Z,86.90
2017-12-23T21:55:54.921Z,87.10
2017-12-23T21:58:22.433Z,87.10
2017-12-23T22:00:49.972Z,87.10
2017-12-23T22:03:18.258Z,87.40
2017-12-23T22:05:46.543Z,87.30
2017-12-23T22:08:14.833Z,87.20
2017-12-23T22:10:42.357Z,87.20
2017-12-23T22:13:09.874Z,87.10
2017-12-23T22:15:37.358Z,87.00
2017-12-23T22:18:04.887Z,87.10
2017-12-23T22:20:32.413Z,87.10
2017-12-23T22:22:59.915Z,87.10
2017-12-23T22:25:27.442Z,87.10
2017-12-23T22:27:54.948Z,87.10
2017-12-23T22:30:22.421Z,87.10
2017-12-23T22:32:49.900Z,87.20
2017-12-23T22:35:17.374Z,87.00
2017-12-23T22:37:44.890Z,87.20
2017-12-23T22:40:12.423Z,87.00
2017-12-23T22:42:39.925Z,87.70
2017-12-23T22:45:07.445Z,87.00
2017-12-23T22:47:34.955Z,86.90
2017-12-23T22:50:02.474Z,86.90
2017-12-23T22:52:30.015Z,86.90
2017-12-23T22:54:57.525Z,86.90
2017-12-23T22:57:25.756Z,87.70
2017-12-23T22:59:53.272Z,86.90
2017-12-23T23:02:20.798Z,86.90
2017-12-23T23:04:48.331Z,87.00
2017-12-23T23:07:15.861Z,86.90
2017-12-23T23:09:43.379Z,87.10
2017-12-23T23:12:10.839Z,87.20
2017-12-23T23:14:38.346Z,87.10
2017-12-23T23:17:05.850Z,87.00
2017-12-23T23:19:33.371Z,87.00
2017-12-23T23:22:00.915Z,87.00
2017-12-23T23:24:28.383Z,87.00
2017-12-23T23:26:55.909Z,87.20
2017-12-23T23:29:23.376Z,87.20
2017-12-23T23:31:50.872Z,87.00
2017-12-23T23:34:18.364Z,87.10
2017-12-23T23:36:45.883Z,87.10
2017-12-23T23:39:13.385Z,87.20
2017-12-23T23:41:40.915Z,87.00
2017-12-23T23:44:08.424Z,87.10
2017-12-23T23:46:35.938Z,87.00
2017-12-23T23:49:03.454Z,87.10
2017-12-23T23:51:31.739Z,87.30
2017-12-23T23:54:00.006Z,87.60
2017-12-23T23:56:27.526Z,87.00
2017-12-23T23:58:55.918Z,86.90
